Upstream stations:
Downstream station:
SHEF ID: DRMK1 NF Cottonwood Rvr nr Durham, KS
STATION TYPE:
PRECIP STAGE RIV-FLOW BAT-LOAD
in ft cfs volt
Ccp-Rev Ccp-Rev Ccp-Rev Ccp-Rev
(US/Central)
09/04 00:00 0.63 9.68 2 12.57
09/04 01:00 0.31 10.12 15 12.44
09/04 02:00 0.04 10.49 50 12.44
09/04 03:00 0.00 11.70 170 12.50
09/04 04:00 0.33 13.97 436 12.47
09/04 05:00 0.11 15.33 635 12.37
09/04 06:00 0.17 15.88 722 12.44
09/04 07:00 0.35 16.69 857 12.36
09/04 08:00 0.20 18.30 1147 12.34
09/04 09:00 0.06 19.85 1452 12.49
09/04 10:00 0.01 20.85 1661 12.72
09/04 11:00 0.00 21.35 1769 13.59
09/04 12:00 0.00 21.60 1824 13.62
09/04 13:00 0.00 21.67 1840 13.57
09/04 14:00 0.00 21.60 1824 13.29
09/04 15:00 0.00 21.30 1758 13.13
09/04 16:00 0.00 20.72 1634 13.06
09/04 17:00 0.00 19.79 1440 13.06
09/04 18:00 0.00 18.69 1222 13.01
09/04 19:00 0.00 17.47 994 13.03
09/04 20:00 0.00 16.24 781 12.73
09/04 21:00 0.00 15.10 599 12.67
09/04 22:00 0.00 14.14 459 12.80
09/04 23:00 ---- ---- ---- ----